sensor_id;sensor_type;location;lat;lon;timestamp;pressure;altitude;pressure_sealevel;temperature;humidity
57900;BME280;60605;53.716;19.940;2023-04-26T00:01:51;99576.65;;;6.42;100.00
57900;BME280;60605;53.716;19.940;2023-04-26T00:06:56;99584.14;;;6.38;100.00
57900;BME280;60605;53.716;19.940;2023-04-26T00:12:00;99582.77;;;6.36;100.00
57900;BME280;60605;53.716;19.940;2023-04-26T00:17:03;99579.64;;;6.33;100.00
57900;BME280;60605;53.716;19.940;2023-04-26T00:22:07;99582.05;;;6.30;100.00
57900;BME280;60605;53.716;19.940;2023-04-26T00:27:13;99585.55;;;6.27;100.00
57900;BME280;60605;53.716;19.940;2023-04-26T00:32:16;99581.97;;;6.22;100.00
57900;BME280;60605;53.716;19.940;2023-04-26T00:37:19;99583.04;;;6.14;100.00
57900;BME280;60605;53.716;19.940;2023-04-26T00:42:23;99579.11;;;6.05;100.00
57900;BME280;60605;53.716;19.940;2023-04-26T00:47:26;99584.62;;;5.93;100.00
57900;BME280;60605;53.716;19.940;2023-04-26T00:52:31;99583.05;;;5.79;100.00
57900;BME280;60605;53.716;19.940;2023-04-26T00:57:35;99583.30;;;5.65;100.00
57900;BME280;60605;53.716;19.940;2023-04-26T01:02:38;99583.88;;;5.53;100.00
57900;BME280;60605;53.716;19.940;2023-04-26T01:07:44;99587.50;;;5.46;100.00
57900;BME280;60605;53.716;19.940;2023-04-26T01:12:48;99589.77;;;5.47;100.00
57900;BME280;60605;53.716;19.940;2023-04-26T01:17:52;99592.71;;;5.51;100.00
57900;BME280;60605;53.716;19.940;2023-04-26T01:22:55;99586.02;;;5.59;100.00
57900;BME280;60605;53.716;19.940;2023-04-26T01:27:59;99580.23;;;5.66;100.00
57900;BME280;60605;53.716;19.940;2023-04-26T01:33:02;99581.38;;;5.65;100.00
57900;BME280;60605;53.716;19.940;2023-04-26T01:38:06;99582.48;;;5.57;100.00
57900;BME280;60605;53.716;19.940;2023-04-26T01:43:10;99585.45;;;5.43;100.00
57900;BME280;60605;53.716;19.940;2023-04-26T01:48:13;99588.45;;;5.32;100.00
57900;BME280;60605;53.716;19.940;2023-04-26T01:53:17;99586.98;;;5.26;100.00
57900;BME280;60605;53.716;19.940;2023-04-26T01:58:20;99586.48;;;5.24;100.00
57900;BME280;60605;53.716;19.940;2023-04-26T02:03:23;99588.99;;;5.28;100.00
57900;BME280;60605;53.716;19.940;2023-04-26T02:08:26;99587.16;;;5.32;100.00
57900;BME280;60605;53.716;19.940;2023-04-26T02:13:30;99583.77;;;5.38;100.00
57900;BME280;60605;53.716;19.940;2023-04-26T02:18:33;99585.01;;;5.42;100.00
57900;BME280;60605;53.716;19.940;2023-04-26T02:23:36;99584.89;;;5.45;100.00
57900;BME280;60605;53.716;19.940;2023-04-26T02:28:40;99589.35;;;5.47;100.00
57900;BME280;60605;53.716;19.940;2023-04-26T02:33:43;99587.13;;;5.49;100.00
57900;BME280;60605;53.716;19.940;2023-04-26T02:38:47;99587.45;;;5.47;100.00
57900;BME280;60605;53.716;19.940;2023-04-26T02:43:50;99582.61;;;5.39;100.00
57900;BME280;60605;53.716;19.940;2023-04-26T02:48:54;99579.69;;;5.27;100.00
57900;BME280;60605;53.716;19.940;2023-04-26T02:53:57;99578.73;;;5.10;100.00
57900;BME280;60605;53.716;19.940;2023-04-26T02:59:00;99578.92;;;4.92;100.00
57900;BME280;60605;53.716;19.940;2023-04-26T03:04:03;99585.08;;;4.74;100.00
57900;BME280;60605;53.716;19.940;2023-04-26T03:09:07;99586.33;;;4.58;100.00
57900;BME280;60605;53.716;19.940;2023-04-26T03:14:10;99585.09;;;4.44;100.00
57900;BME280;60605;53.716;19.940;2023-04-26T03:19:13;99588.05;;;4.32;100.00
57900;BME280;60605;53.716;19.940;2023-04-26T03:24:17;99585.96;;;4.21;100.00
57900;BME280;60605;53.716;19.940;2023-04-26T03:29:20;99590.88;;;4.14;100.00
57900;BME280;60605;53.716;19.940;2023-04-26T03:34:23;99592.58;;;4.06;100.00
57900;BME280;60605;53.716;19.940;2023-04-26T03:39:26;99590.50;;;3.99;100.00
57900;BME280;60605;53.716;19.940;2023-04-26T03:44:29;99597.27;;;3.97;100.00
57900;BME280;60605;53.716;19.940;2023-04-26T03:49:33;99596.11;;;3.96;100.00
57900;BME280;60605;53.716;19.940;2023-04-26T03:54:36;99599.72;;;3.99;100.00
57900;BME280;60605;53.716;19.940;2023-04-26T03:59:39;99607.14;;;4.09;100.00
57900;BME280;60605;53.716;19.940;2023-04-26T04:04:42;99610.41;;;4.37;100.00
57900;BME280;60605;53.716;19.940;2023-04-26T04:09:46;99611.09;;;4.92;100.00
57900;BME280;60605;53.716;19.940;2023-04-26T04:14:49;99611.64;;;5.90;100.00
57900;BME280;60605;53.716;19.940;2023-04-26T04:19:52;99617.71;;;6.91;100.00
57900;BME280;60605;53.716;19.940;2023-04-26T04:24:56;99617.27;;;7.90;100.00
57900;BME280;60605;53.716;19.940;2023-04-26T04:29:59;99613.52;;;8.83;100.00
57900;BME280;60605;53.716;19.940;2023-04-26T04:35:06;99616.40;;;9.89;100.00
57900;BME280;60605;53.716;19.940;2023-04-26T04:40:10;99616.37;;;10.92;99.96
57900;BME280;60605;53.716;19.940;2023-04-26T04:45:15;99616.66;;;11.98;98.29
57900;BME280;60605;53.716;19.940;2023-04-26T04:50:19;99623.41;;;12.90;92.15
57900;BME280;60605;53.716;19.940;2023-04-26T04:55:23;99626.95;;;13.75;87.91
57900;BME280;60605;53.716;19.940;2023-04-26T05:00:27;99635.09;;;14.69;84.23
57900;BME280;60605;53.716;19.940;2023-04-26T05:05:31;99634.04;;;15.47;78.78
57900;BME280;60605;53.716;19.940;2023-04-26T05:10:34;99634.27;;;16.30;75.86
57900;BME280;60605;53.716;19.940;2023-04-26T05:15:38;99640.48;;;17.11;72.73
57900;BME280;60605;53.716;19.940;2023-04-26T05:20:42;99648.79;;;17.79;68.30
57900;BME280;60605;53.716;19.940;2023-04-26T05:25:45;99648.05;;;18.29;64.96
57900;BME280;60605;53.716;19.940;2023-04-26T05:30:48;99661.36;;;18.95;63.70
57900;BME280;60605;53.716;19.940;2023-04-26T05:35:51;99663.34;;;19.62;60.72
57900;BME280;60605;53.716;19.940;2023-04-26T05:40:56;99663.08;;;19.98;58.29
57900;BME280;60605;53.716;19.940;2023-04-26T05:45:59;99667.21;;;20.24;57.21
57900;BME280;60605;53.716;19.940;2023-04-26T05:51:05;99665.81;;;20.57;55.59
57900;BME280;60605;53.716;19.940;2023-04-26T05:56:08;99661.30;;;20.41;54.57
57900;BME280;60605;53.716;19.940;2023-04-26T06:01:11;99660.98;;;20.55;54.30
57900;BME280;60605;53.716;19.940;2023-04-26T06:06:15;99661.73;;;21.28;53.75
57900;BME280;60605;53.716;19.940;2023-04-26T06:11:20;99662.50;;;21.41;51.95
57900;BME280;60605;53.716;19.940;2023-04-26T06:16:24;99662.59;;;21.66;51.50
57900;BME280;60605;53.716;19.940;2023-04-26T06:21:28;99664.48;;;22.54;49.55
57900;BME280;60605;53.716;19.940;2023-04-26T06:26:31;99666.80;;;23.59;48.97
57900;BME280;60605;53.716;19.940;2023-04-26T06:31:35;99669.45;;;24.54;45.92
57900;BME280;60605;53.716;19.940;2023-04-26T06:36:38;99671.84;;;24.75;44.90
57900;BME280;60605;53.716;19.940;2023-04-26T06:41:42;99675.35;;;23.35;44.37
57900;BME280;60605;53.716;19.940;2023-04-26T06:46:45;99671.88;;;22.18;45.65
57900;BME280;60605;53.716;19.940;2023-04-26T06:51:48;99673.88;;;21.82;46.27
57900;BME280;60605;53.716;19.940;2023-04-26T06:56:52;99678.62;;;22.20;44.59
57900;BME280;60605;53.716;19.940;2023-04-26T07:01:55;99681.14;;;22.14;41.50
57900;BME280;60605;53.716;19.940;2023-04-26T07:06:58;99682.39;;;21.52;40.58
57900;BME280;60605;53.716;19.940;2023-04-26T07:12:02;99677.90;;;20.73;40.95
57900;BME280;60605;53.716;19.940;2023-04-26T07:17:06;99686.38;;;19.88;41.48
57900;BME280;60605;53.716;19.940;2023-04-26T07:22:09;99689.90;;;19.39;42.23
57900;BME280;60605;53.716;19.940;2023-04-26T07:27:12;99690.27;;;19.18;43.53
57900;BME280;60605;53.716;19.940;2023-04-26T07:32:16;99687.38;;;18.78;43.38
57900;BME280;60605;53.716;19.940;2023-04-26T07:37:19;99689.63;;;18.38;44.12
57900;BME280;60605;53.716;19.940;2023-04-26T07:42:22;99691.02;;;17.59;44.19
57900;BME280;60605;53.716;19.940;2023-04-26T07:47:25;99695.36;;;16.62;45.92
57900;BME280;60605;53.716;19.940;2023-04-26T07:52:28;99699.37;;;16.46;46.29
57900;BME280;60605;53.716;19.940;2023-04-26T07:57:32;99704.01;;;16.30;47.25
57900;BME280;60605;53.716;19.940;2023-04-26T08:02:35;99705.73;;;16.36;48.84
57900;BME280;60605;53.716;19.940;2023-04-26T08:07:47;99709.87;;;16.91;47.64
57900;BME280;60605;53.716;19.940;2023-04-26T08:12:50;99706.25;;;16.66;47.29
57900;BME280;60605;53.716;19.940;2023-04-26T08:17:53;99712.54;;;17.18;46.29
57900;BME280;60605;53.716;19.940;2023-04-26T08:22:58;99714.69;;;17.33;44.80
57900;BME280;60605;53.716;19.940;2023-04-26T08:28:01;99719.73;;;16.37;45.96
57900;BME280;60605;53.716;19.940;2023-04-26T08:33:04;99721.13;;;15.21;46.94
57900;BME280;60605;53.716;19.940;2023-04-26T08:38:08;99715.06;;;14.11;48.55
57900;BME280;60605;53.716;19.940;2023-04-26T08:43:14;99730.85;;;13.31;50.71
57900;BME280;60605;53.716;19.940;2023-04-26T08:48:18;99732.39;;;12.60;52.66
57900;BME280;60605;53.716;19.940;2023-04-26T08:53:22;99734.80;;;12.49;54.07
57900;BME280;60605;53.716;19.940;2023-04-26T08:58:26;99735.86;;;12.76;54.61
57900;BME280;60605;53.716;19.940;2023-04-26T09:03:29;99741.75;;;12.92;54.22
57900;BME280;60605;53.716;19.940;2023-04-26T09:08:35;99745.02;;;13.34;53.43
57900;BME280;60605;53.716;19.940;2023-04-26T09:13:42;99740.70;;;15.59;49.59
57900;BME280;60605;53.716;19.940;2023-04-26T09:18:51;99739.09;;;16.29;45.04
57900;BME280;60605;53.716;19.940;2023-04-26T09:24:01;99742.41;;;16.52;43.86
57900;BME280;60605;53.716;19.940;2023-04-26T09:29:16;99747.34;;;16.69;41.93
57900;BME280;60605;53.716;19.940;2023-04-26T09:34:19;99750.02;;;16.15;42.57
57900;BME280;60605;53.716;19.940;2023-04-26T09:39:36;99752.86;;;15.62;44.02
57900;BME280;60605;53.716;19.940;2023-04-26T09:44:39;99758.15;;;15.21;44.80
57900;BME280;60605;53.716;19.940;2023-04-26T09:49:46;99752.24;;;14.90;46.69
57900;BME280;60605;53.716;19.940;2023-04-26T09:54:52;99755.90;;;14.63;47.21
57900;BME280;60605;53.716;19.940;2023-04-26T09:59:55;99753.13;;;14.35;47.66
57900;BME280;60605;53.716;19.940;2023-04-26T10:04:59;99756.73;;;14.06;48.52
57900;BME280;60605;53.716;19.940;2023-04-26T10:10:10;99759.95;;;14.49;49.54
57900;BME280;60605;53.716;19.940;2023-04-26T10:15:13;99762.00;;;14.46;48.77
57900;BME280;60605;53.716;19.940;2023-04-26T10:20:19;99766.48;;;13.80;48.80
57900;BME280;60605;53.716;19.940;2023-04-26T10:25:37;99769.94;;;12.94;50.11
57900;BME280;60605;53.716;19.940;2023-04-26T10:30:57;99774.31;;;12.57;52.53
57900;BME280;60605;53.716;19.940;2023-04-26T10:36:06;99776.54;;;12.57;53.87
57900;BME280;60605;53.716;19.940;2023-04-26T10:41:32;99786.95;;;12.50;52.81
57900;BME280;60605;53.716;19.940;2023-04-26T10:46:39;99794.48;;;12.43;53.08
57900;BME280;60605;53.716;19.940;2023-04-26T10:52:08;99796.45;;;12.54;53.58
57900;BME280;60605;53.716;19.940;2023-04-26T10:57:14;99796.56;;;12.89;52.51
57900;BME280;60605;53.716;19.940;2023-04-26T11:08:16;99811.02;;;12.25;52.51
57900;BME280;60605;53.716;19.940;2023-04-26T11:13:19;99817.13;;;11.78;53.75
57900;BME280;60605;53.716;19.940;2023-04-26T11:18:23;99818.52;;;11.75;55.32
57900;BME280;60605;53.716;19.940;2023-04-26T11:23:28;99820.22;;;11.79;54.47
57900;BME280;60605;53.716;19.940;2023-04-26T11:28:34;99827.13;;;11.62;54.74
57900;BME280;60605;53.716;19.940;2023-04-26T11:33:40;99833.82;;;11.47;55.46
57900;BME280;60605;53.716;19.940;2023-04-26T11:38:43;99838.71;;;11.24;56.20
57900;BME280;60605;53.716;19.940;2023-04-26T11:43:46;99840.86;;;11.00;57.46
57900;BME280;60605;53.716;19.940;2023-04-26T11:48:50;99847.30;;;10.87;58.00
57900;BME280;60605;53.716;19.940;2023-04-26T11:53:54;99851.55;;;10.89;58.76
57900;BME280;60605;53.716;19.940;2023-04-26T11:58:57;99853.13;;;11.26;59.35
57900;BME280;60605;53.716;19.940;2023-04-26T12:04:01;99855.95;;;11.70;58.39
57900;BME280;60605;53.716;19.940;2023-04-26T12:09:05;99857.52;;;11.85;57.33
57900;BME280;60605;53.716;19.940;2023-04-26T12:14:08;99859.88;;;11.85;57.31
57900;BME280;60605;53.716;19.940;2023-04-26T12:19:13;99859.77;;;11.87;57.93
57900;BME280;60605;53.716;19.940;2023-04-26T12:24:25;99866.79;;;11.85;58.67
57900;BME280;60605;53.716;19.940;2023-04-26T12:29:29;99868.00;;;11.79;58.70
57900;BME280;60605;53.716;19.940;2023-04-26T12:34:33;99873.05;;;11.43;57.93
57900;BME280;60605;53.716;19.940;2023-04-26T12:39:36;99883.70;;;11.15;58.89
57900;BME280;60605;53.716;19.940;2023-04-26T12:44:40;99885.02;;;11.00;59.02
57900;BME280;60605;53.716;19.940;2023-04-26T12:49:43;99884.79;;;10.95;60.44
57900;BME280;60605;53.716;19.940;2023-04-26T12:54:46;99883.17;;;11.10;61.64
57900;BME280;60605;53.716;19.940;2023-04-26T12:59:50;99886.11;;;11.50;61.84
57900;BME280;60605;53.716;19.940;2023-04-26T13:04:54;99890.73;;;11.90;59.32
57900;BME280;60605;53.716;19.940;2023-04-26T13:09:58;99892.72;;;12.09;58.15
57900;BME280;60605;53.716;19.940;2023-04-26T13:15:01;99892.67;;;12.14;57.06
57900;BME280;60605;53.716;19.940;2023-04-26T13:20:06;99904.36;;;12.12;57.27
57900;BME280;60605;53.716;19.940;2023-04-26T13:25:11;99904.09;;;12.25;56.85
57900;BME280;60605;53.716;19.940;2023-04-26T13:30:15;99902.92;;;12.37;55.64
57900;BME280;60605;53.716;19.940;2023-04-26T13:35:19;99905.19;;;12.43;55.38
57900;BME280;60605;53.716;19.940;2023-04-26T13:40:21;99907.39;;;12.23;55.11
57900;BME280;60605;53.716;19.940;2023-04-26T13:45:25;99912.98;;;11.91;55.75
57900;BME280;60605;53.716;19.940;2023-04-26T13:50:29;99905.73;;;11.62;56.74
57900;BME280;60605;53.716;19.940;2023-04-26T13:55:33;99908.88;;;11.50;57.58
57900;BME280;60605;53.716;19.940;2023-04-26T14:00:36;99906.46;;;11.57;57.85
57900;BME280;60605;53.716;19.940;2023-04-26T14:05:39;99910.61;;;11.77;58.13
57900;BME280;60605;53.716;19.940;2023-04-26T14:10:43;99918.33;;;11.74;57.54
57900;BME280;60605;53.716;19.940;2023-04-26T14:15:46;99919.20;;;11.40;57.81
57900;BME280;60605;53.716;19.940;2023-04-26T14:20:50;99923.27;;;11.00;58.23
57900;BME280;60605;53.716;19.940;2023-04-26T14:25:53;99930.36;;;10.67;58.26
57900;BME280;60605;53.716;19.940;2023-04-26T14:30:57;99935.44;;;10.49;58.84
57900;BME280;60605;53.716;19.940;2023-04-26T14:36:00;99938.15;;;10.49;59.12
57900;BME280;60605;53.716;19.940;2023-04-26T14:41:03;99939.45;;;10.60;58.70
57900;BME280;60605;53.716;19.940;2023-04-26T14:46:08;99944.31;;;10.72;57.89
57900;BME280;60605;53.716;19.940;2023-04-26T14:51:11;99943.03;;;10.86;57.63
57900;BME280;60605;53.716;19.940;2023-04-26T14:56:15;99944.83;;;10.95;56.59
57900;BME280;60605;53.716;19.940;2023-04-26T15:01:18;99951.71;;;10.90;56.88
57900;BME280;60605;53.716;19.940;2023-04-26T15:06:22;99950.77;;;10.70;57.53
57900;BME280;60605;53.716;19.940;2023-04-26T15:11:25;99955.02;;;10.48;57.47
57900;BME280;60605;53.716;19.940;2023-04-26T15:16:29;99961.34;;;10.34;58.14
57900;BME280;60605;53.716;19.940;2023-04-26T15:21:33;99966.36;;;10.36;58.24
57900;BME280;60605;53.716;19.940;2023-04-26T15:26:36;99968.55;;;10.44;57.79
57900;BME280;60605;53.716;19.940;2023-04-26T15:31:40;99971.23;;;10.45;57.23
57900;BME280;60605;53.716;19.940;2023-04-26T15:36:43;99971.96;;;10.48;55.25
57900;BME280;60605;53.716;19.940;2023-04-26T15:41:46;99970.14;;;10.71;52.63
57900;BME280;60605;53.716;19.940;2023-04-26T15:46:50;99974.00;;;10.82;48.97
57900;BME280;60605;53.716;19.940;2023-04-26T15:51:53;99978.27;;;10.80;49.04
57900;BME280;60605;53.716;19.940;2023-04-26T15:56:57;99987.02;;;10.60;48.04
57900;BME280;60605;53.716;19.940;2023-04-26T16:02:00;99990.02;;;10.30;48.87
57900;BME280;60605;53.716;19.940;2023-04-26T16:07:05;99988.13;;;10.13;49.67
57900;BME280;60605;53.716;19.940;2023-04-26T16:12:08;99986.34;;;10.12;49.35
57900;BME280;60605;53.716;19.940;2023-04-26T16:17:11;99991.92;;;10.20;48.51
57900;BME280;60605;53.716;19.940;2023-04-26T16:22:15;99996.05;;;10.25;48.04
57900;BME280;60605;53.716;19.940;2023-04-26T16:27:19;99995.77;;;10.24;47.30
57900;BME280;60605;53.716;19.940;2023-04-26T16:32:23;100004.91;;;10.15;47.49
57900;BME280;60605;53.716;19.940;2023-04-26T16:37:29;100012.90;;;10.00;47.42
57900;BME280;60605;53.716;19.940;2023-04-26T16:42:32;100016.98;;;9.90;48.32
57900;BME280;60605;53.716;19.940;2023-04-26T16:47:35;100023.66;;;9.82;48.11
57900;BME280;60605;53.716;19.940;2023-04-26T16:52:39;100027.19;;;9.68;47.31
57900;BME280;60605;53.716;19.940;2023-04-26T16:57:42;100031.56;;;9.52;47.71
57900;BME280;60605;53.716;19.940;2023-04-26T17:02:47;100036.98;;;9.35;47.84
57900;BME280;60605;53.716;19.940;2023-04-26T17:07:51;100042.47;;;9.17;48.33
57900;BME280;60605;53.716;19.940;2023-04-26T17:12:55;100046.20;;;9.01;49.31
57900;BME280;60605;53.716;19.940;2023-04-26T17:17:59;100051.98;;;8.85;49.75
57900;BME280;60605;53.716;19.940;2023-04-26T17:23:03;100055.88;;;8.67;50.24
57900;BME280;60605;53.716;19.940;2023-04-26T17:28:07;100059.02;;;8.50;50.73
57900;BME280;60605;53.716;19.940;2023-04-26T17:33:10;100061.77;;;8.32;51.55
57900;BME280;60605;53.716;19.940;2023-04-26T17:38:14;100066.52;;;8.12;52.11
57900;BME280;60605;53.716;19.940;2023-04-26T17:43:17;100076.32;;;7.90;52.94
57900;BME280;60605;53.716;19.940;2023-04-26T17:48:21;100084.29;;;7.70;53.62
57900;BME280;60605;53.716;19.940;2023-04-26T17:53:24;100080.91;;;7.51;54.33
57900;BME280;60605;53.716;19.940;2023-04-26T17:58:28;100086.48;;;7.32;55.15
57900;BME280;60605;53.716;19.940;2023-04-26T18:03:31;100091.08;;;7.14;55.89
57900;BME280;60605;53.716;19.940;2023-04-26T18:08:38;100097.58;;;6.95;56.57
57900;BME280;60605;53.716;19.940;2023-04-26T18:13:41;100105.15;;;6.74;56.85
57900;BME280;60605;53.716;19.940;2023-04-26T18:18:45;100108.04;;;6.51;57.34
57900;BME280;60605;53.716;19.940;2023-04-26T18:23:49;100110.10;;;6.27;58.27
57900;BME280;60605;53.716;19.940;2023-04-26T18:28:52;100123.35;;;6.05;58.72
57900;BME280;60605;53.716;19.940;2023-04-26T18:33:57;100130.08;;;5.86;59.08
57900;BME280;60605;53.716;19.940;2023-04-26T18:39:00;100132.84;;;5.70;59.62
57900;BME280;60605;53.716;19.940;2023-04-26T18:44:03;100137.94;;;5.55;60.04
57900;BME280;60605;53.716;19.940;2023-04-26T18:49:15;100144.27;;;5.40;60.53
57900;BME280;60605;53.716;19.940;2023-04-26T18:54:18;100149.02;;;5.25;60.87
57900;BME280;60605;53.716;19.940;2023-04-26T18:59:22;100152.50;;;5.13;61.24
57900;BME280;60605;53.716;19.940;2023-04-26T19:04:27;100158.79;;;5.02;61.56
57900;BME280;60605;53.716;19.940;2023-04-26T19:09:32;100160.62;;;4.93;61.81
57900;BME280;60605;53.716;19.940;2023-04-26T19:14:55;100163.34;;;4.83;62.00
57900;BME280;60605;53.716;19.940;2023-04-26T19:19:59;100165.06;;;4.73;62.19
57900;BME280;60605;53.716;19.940;2023-04-26T19:25:02;100166.26;;;4.60;62.79
57900;BME280;60605;53.716;19.940;2023-04-26T19:30:10;100167.38;;;4.43;63.84
57900;BME280;60605;53.716;19.940;2023-04-26T19:35:14;100171.06;;;4.23;64.66
57900;BME280;60605;53.716;19.940;2023-04-26T19:40:18;100171.34;;;4.03;65.58
57900;BME280;60605;53.716;19.940;2023-04-26T19:45:21;100171.02;;;3.86;66.57
57900;BME280;60605;53.716;19.940;2023-04-26T19:50:25;100172.73;;;3.72;67.74
57900;BME280;60605;53.716;19.940;2023-04-26T19:55:33;100173.91;;;3.58;68.09
57900;BME280;60605;53.716;19.940;2023-04-26T20:00:37;100177.92;;;3.47;68.39
57900;BME280;60605;53.716;19.940;2023-04-26T20:05:42;100178.58;;;3.36;68.88
57900;BME280;60605;53.716;19.940;2023-04-26T20:10:46;100178.17;;;3.24;69.80
57900;BME280;60605;53.716;19.940;2023-04-26T20:15:49;100181.92;;;3.12;70.83
57900;BME280;60605;53.716;19.940;2023-04-26T20:20:53;100181.32;;;2.98;71.67
57900;BME280;60605;53.716;19.940;2023-04-26T20:25:56;100183.77;;;2.86;72.34
57900;BME280;60605;53.716;19.940;2023-04-26T20:31:01;100186.45;;;2.75;73.58
57900;BME280;60605;53.716;19.940;2023-04-26T20:36:07;100185.66;;;2.63;74.61
57900;BME280;60605;53.716;19.940;2023-04-26T20:41:11;100194.33;;;2.53;75.22
57900;BME280;60605;53.716;19.940;2023-04-26T20:46:15;100195.30;;;2.41;76.02
57900;BME280;60605;53.716;19.940;2023-04-26T20:51:19;100198.86;;;2.30;76.84
57900;BME280;60605;53.716;19.940;2023-04-26T20:56:23;100202.15;;;2.18;77.21
57900;BME280;60605;53.716;19.940;2023-04-26T21:01:26;100203.73;;;2.08;77.90
57900;BME280;60605;53.716;19.940;2023-04-26T21:06:30;100202.39;;;1.99;78.61
57900;BME280;60605;53.716;19.940;2023-04-26T21:11:34;100207.05;;;1.90;79.21
57900;BME280;60605;53.716;19.940;2023-04-26T21:16:37;100207.58;;;1.84;80.07
57900;BME280;60605;53.716;19.940;2023-04-26T21:21:41;100212.39;;;1.78;80.77
57900;BME280;60605;53.716;19.940;2023-04-26T21:26:45;100211.46;;;1.70;81.23
57900;BME280;60605;53.716;19.940;2023-04-26T21:31:48;100218.85;;;1.65;81.67
57900;BME280;60605;53.716;19.940;2023-04-26T21:36:51;100221.82;;;1.57;81.99
57900;BME280;60605;53.716;19.940;2023-04-26T21:41:55;100224.05;;;1.50;82.23
57900;BME280;60605;53.716;19.940;2023-04-26T21:46:58;100227.91;;;1.42;82.40
57900;BME280;60605;53.716;19.940;2023-04-26T21:52:02;100226.54;;;1.36;83.00
57900;BME280;60605;53.716;19.940;2023-04-26T21:57:05;100232.73;;;1.33;83.50
57900;BME280;60605;53.716;19.940;2023-04-26T22:02:08;100237.41;;;1.31;83.95
57900;BME280;60605;53.716;19.940;2023-04-26T22:07:12;100245.27;;;1.32;84.49
57900;BME280;60605;53.716;19.940;2023-04-26T22:12:15;100243.25;;;1.30;84.70
57900;BME280;60605;53.716;19.940;2023-04-26T22:17:19;100246.52;;;1.28;85.00
57900;BME280;60605;53.716;19.940;2023-04-26T22:22:23;100248.08;;;1.26;84.95
57900;BME280;60605;53.716;19.940;2023-04-26T22:27:26;100250.19;;;1.23;84.88
57900;BME280;60605;53.716;19.940;2023-04-26T22:32:29;100252.26;;;1.18;85.30
57900;BME280;60605;53.716;19.940;2023-04-26T22:37:32;100252.16;;;1.12;85.57
57900;BME280;60605;53.716;19.940;2023-04-26T22:42:36;100257.45;;;1.06;85.96
57900;BME280;60605;53.716;19.940;2023-04-26T22:47:39;100261.06;;;1.01;86.49
57900;BME280;60605;53.716;19.940;2023-04-26T22:52:43;100262.84;;;0.98;86.88
57900;BME280;60605;53.716;19.940;2023-04-26T22:57:46;100262.45;;;0.96;87.22
57900;BME280;60605;53.716;19.940;2023-04-26T23:02:49;100266.41;;;0.95;87.60
57900;BME280;60605;53.716;19.940;2023-04-26T23:07:53;100265.55;;;0.92;87.42
57900;BME280;60605;53.716;19.940;2023-04-26T23:12:56;100269.54;;;0.86;87.53
57900;BME280;60605;53.716;19.940;2023-04-26T23:18:00;100275.92;;;0.83;87.94
57900;BME280;60605;53.716;19.940;2023-04-26T23:23:03;100279.06;;;0.80;88.25
57900;BME280;60605;53.716;19.940;2023-04-26T23:28:07;100278.78;;;0.79;88.75
57900;BME280;60605;53.716;19.940;2023-04-26T23:33:10;100278.58;;;0.77;88.71
57900;BME280;60605;53.716;19.940;2023-04-26T23:38:14;100275.33;;;0.72;88.85
57900;BME280;60605;53.716;19.940;2023-04-26T23:43:17;100275.57;;;0.71;89.57
57900;BME280;60605;53.716;19.940;2023-04-26T23:48:20;100276.70;;;0.70;89.59
57900;BME280;60605;53.716;19.940;2023-04-26T23:53:24;100279.30;;;0.68;89.78
57900;BME280;60605;53.716;19.940;2023-04-26T23:58:29;100281.90;;;0.65;90.21
